Talmaciu, Romania
Current Conditions -  °F | °C
As of 4:30 PM on Tuesday 21 Oct 2014 (Local Time) from LRSB Reporting Station
Scattered Clouds Scattered Clouds  
Wind Chill: 66°   Ceiling: Unl
Heat Index: 66°   Visibility: 6mi
Dew Point: 52°   Wind: 12mph
Humidity: 60%   Direction: 310°NW
Pressure: 29.83"   Gusts: NA
Location:  45.68°N, 24.27°E
Report Text: LRSB 211330Z 31010KT 9999 SCT052 19/11 Q1010
Loading
Personal Weather Stations






























Interactive Weather Map
Tropical Storm Tracking
New forecast layout! Learn more

10-Day Weather Forecast

Advertisements
Track Severe Weather on mobile